aviador You're here:

CYEK Decoded Metar

ESKIMO POINT in NU, CANADA
Report Time2017-10-19 21:00:00
UTC Time2017-10-19 21:54:33
Flight Rules mvfr MVFR
Wind090° at 11 kt
W.Decomp.*RWY 15: 6.2 kt HW 9.1 kt LCW
W.Rank090° ranks 27
Current wind is below 090° avg. (11.8)
Visibility9999 m
Phenomena:N/A
Clouds:Overcast 022 Hf
Expected CloudBase > 2,000 ft AGL from Temp-Dew spread
Ceiling2,200 ft
Temp-1°C (ISA -16)
Dew Point-6°C (69% RH)
AAT-7.7°C
QNH1013 hPa
Density Alt-1,864 ft
Elevation33 ft
Report Wrong Elevation
Raw Report
CYEK 192100Z 09011KT 15SM OVC022 M01/M06 A2992 RMK SC8 SLP134=

Extra information for CYEK:More info

Metar Taf Metar & Taf Last 4 Metars F.Rules Stats Wind Profile Meteogram Temp Stats Airport Information Weather charts Add Link Nearby VenuesMetar ALERT Operation Metar Decoded Social comments